createdAt,value
2022-11-29T00:03:05.395Z,3.25
2022-11-29T00:08:08.516Z,3.08
2022-11-29T00:13:11.526Z,2.72
2022-11-29T00:18:16.147Z,3.03
2022-11-29T00:23:19.124Z,2.92
2022-11-29T00:28:22.313Z,2.65
2022-11-29T00:33:26.706Z,3.15
2022-11-29T00:38:29.727Z,2.35
2022-11-29T00:43:32.760Z,2.58
2022-11-29T00:48:37.897Z,2.50
2022-11-29T00:53:41.189Z,2.17
2022-11-29T00:58:44.484Z,2.13
2022-11-29T01:03:49.033Z,2.38
2022-11-29T01:08:52.067Z,2.03
2022-11-29T01:13:57.278Z,2.15
2022-11-29T01:19:01.900Z,2.03
2022-11-29T01:24:05.248Z,2.35
2022-11-29T01:29:08.249Z,2.00
2022-11-29T01:34:12.930Z,1.98
2022-11-29T01:39:15.916Z,2.00
2022-11-29T01:44:55.317Z,1.80
2022-11-29T01:50:00.445Z,2.10
2022-11-29T01:55:06.483Z,1.90
2022-11-29T02:00:13.132Z,1.77
2022-11-29T02:05:19.665Z,2.00
2022-11-29T02:10:26.777Z,1.63
2022-11-29T02:15:47.253Z,1.30
2022-11-29T02:21:32.453Z,1.70
2022-11-29T02:26:59.957Z,1.45
2022-11-29T02:32:43.477Z,2.05
2022-11-29T02:38:05.010Z,1.50
2022-11-29T02:43:28.756Z,1.73
2022-11-29T02:48:51.046Z,1.40
2022-11-29T02:54:01.085Z,1.77
2022-11-29T02:59:09.760Z,1.55
2022-11-29T03:04:22.712Z,1.48
2022-11-29T03:09:35.049Z,1.52
2022-11-29T03:14:48.713Z,1.52
2022-11-29T03:20:07.969Z,1.40
2022-11-29T03:25:15.137Z,1.30
2022-11-29T03:30:20.129Z,1.23
2022-11-29T03:35:30.892Z,1.30
2022-11-29T03:40:40.064Z,1.30
2022-11-29T03:45:49.715Z,1.30
2022-11-29T03:50:57.487Z,1.33
2022-11-29T03:56:02.607Z,1.30
2022-11-29T04:01:29.468Z,1.25
2022-11-29T04:06:48.410Z,1.10
2022-11-29T04:12:18.761Z,1.27
2022-11-29T04:18:04.264Z,1.40
2022-11-29T04:23:38.797Z,1.15
2022-11-29T04:29:09.266Z,1.10
2022-11-29T04:34:54.993Z,1.00
2022-11-29T04:40:20.957Z,1.33
2022-11-29T04:45:52.335Z,1.20
2022-11-29T04:51:02.748Z,1.13
2022-11-29T04:56:17.320Z,1.02
2022-11-29T05:01:29.052Z,1.00
2022-11-29T05:06:40.461Z,1.20
2022-11-29T05:11:56.747Z,1.00
2022-11-29T05:17:19.412Z,1.33
2022-11-29T05:22:31.568Z,1.02
2022-11-29T05:27:45.953Z,1.08
2022-11-29T05:33:03.707Z,1.20
2022-11-29T05:38:21.573Z,0.88
2022-11-29T05:43:47.947Z,1.00
2022-11-29T05:48:59.840Z,0.90
2022-11-29T05:54:12.880Z,1.02
2022-11-29T05:59:22.248Z,0.90
2022-11-29T06:04:33.237Z,1.00
2022-11-29T06:09:42.458Z,1.00
2022-11-29T06:15:05.480Z,1.02
2022-11-29T06:20:27.350Z,1.00
2022-11-29T06:25:47.102Z,0.90
2022-11-29T06:31:02.140Z,1.05
2022-11-29T06:36:18.751Z,1.00
2022-11-29T06:41:24.749Z,1.13
2022-11-29T06:46:36.860Z,0.98
2022-11-29T06:51:49.397Z,0.90
2022-11-29T06:57:00.362Z,0.93
2022-11-29T07:02:25.338Z,1.00
2022-11-29T07:07:29.019Z,1.13
2022-11-29T07:12:32.505Z,1.40
2022-11-29T07:17:44.823Z,1.40
2022-11-29T07:23:01.719Z,1.30
2022-11-29T07:28:15.974Z,1.77
2022-11-29T07:33:26.178Z,1.70
2022-11-29T07:38:37.360Z,1.52
2022-11-29T07:43:50.321Z,1.65
2022-11-29T07:48:54.623Z,1.52
2022-11-29T07:53:57.869Z,3.70
2022-11-29T07:59:01.407Z,1.88
2022-11-29T08:04:06.037Z,2.13
2022-11-29T08:09:09.010Z,2.03
2022-11-29T08:14:12.400Z,4.45
2022-11-29T08:19:16.741Z,2.58
2022-11-29T08:24:19.709Z,2.33
2022-11-29T08:29:22.706Z,2.80
2022-11-29T08:34:27.127Z,2.50
2022-11-29T08:39:30.233Z,2.60
2022-11-29T08:44:33.297Z,2.38
2022-11-29T08:49:58.059Z,2.50
2022-11-29T08:55:03.282Z,2.40
2022-11-29T09:00:07.770Z,2.45
2022-11-29T09:05:12.953Z,2.42
2022-11-29T09:10:15.955Z,2.40
2022-11-29T09:15:19.182Z,2.40
2022-11-29T09:20:23.521Z,2.38
2022-11-29T09:25:26.649Z,2.03
2022-11-29T09:30:31.440Z,2.33
2022-11-29T09:35:35.909Z,2.20
2022-11-29T09:40:42.479Z,2.13
2022-11-29T09:45:47.660Z,2.08
2022-11-29T09:50:58.494Z,2.05
2022-11-29T09:56:12.437Z,1.98
2022-11-29T10:01:22.738Z,1.70
2022-11-29T10:06:32.029Z,1.92
2022-11-29T10:11:39.602Z,1.90
2022-11-29T10:16:46.604Z,1.90
2022-11-29T10:21:59.065Z,1.75
2022-11-29T10:27:02.165Z,2.00
2022-11-29T10:32:14.924Z,2.17
2022-11-29T10:37:20.965Z,1.65
2022-11-29T10:42:43.483Z,1.65
2022-11-29T10:47:48.761Z,1.80
2022-11-29T10:52:58.669Z,2.33
2022-11-29T10:58:12.564Z,1.85
2022-11-29T11:03:25.370Z,1.63
2022-11-29T11:08:30.669Z,1.90
2022-11-29T11:13:34.620Z,1.40
2022-11-29T11:18:38.354Z,1.55
2022-11-29T11:23:47.692Z,1.55
2022-11-29T11:28:53.520Z,1.67
2022-11-29T11:33:56.571Z,1.52
2022-11-29T11:39:12.168Z,1.50
2022-11-29T11:44:46.453Z,1.40
2022-11-29T11:49:54.281Z,1.80
2022-11-29T11:55:00.923Z,1.65
2022-11-29T12:00:07.186Z,1.50
2022-11-29T12:05:16.403Z,1.38
2022-11-29T12:10:25.382Z,1.65
2022-11-29T12:15:32.346Z,1.60
2022-11-29T12:20:40.821Z,1.40
2022-11-29T12:25:51.855Z,1.48
2022-11-29T12:31:04.407Z,1.17
2022-11-29T12:36:22.313Z,1.38
2022-11-29T12:41:38.233Z,1.73
2022-11-29T12:46:42.997Z,1.25
2022-11-29T12:51:55.776Z,1.40
2022-11-29T12:57:08.948Z,1.67
2022-11-29T13:02:26.943Z,1.52
2022-11-29T13:07:41.028Z,1.23
2022-11-29T13:12:49.360Z,1.40
2022-11-29T13:17:59.912Z,1.35
2022-11-29T13:23:14.355Z,1.38
2022-11-29T13:28:24.086Z,1.40
2022-11-29T13:33:31.130Z,1.40
2022-11-29T13:38:41.399Z,1.50
2022-11-29T13:43:51.233Z,1.50
2022-11-29T13:48:55.497Z,1.35
2022-11-29T13:54:01.126Z,1.50
2022-11-29T13:59:15.173Z,1.40
2022-11-29T14:04:28.448Z,1.50
2022-11-29T14:09:36.977Z,1.27
2022-11-29T14:14:51.451Z,1.02
2022-11-29T14:20:29.485Z,1.38
2022-11-29T14:30:58.479Z,1.05
2022-11-29T14:36:19.908Z,1.27
2022-11-29T14:41:29.902Z,1.30
2022-11-29T14:46:34.899Z,0.90
2022-11-29T14:51:37.993Z,1.10
2022-11-29T14:56:43.330Z,1.20
2022-11-29T15:01:49.635Z,1.20
2022-11-29T15:06:56.776Z,1.23
2022-11-29T15:12:03.243Z,1.25
2022-11-29T15:17:19.112Z,1.38
2022-11-29T15:22:23.580Z,1.40
2022-11-29T15:27:26.553Z,1.10
2022-11-29T15:32:32.764Z,1.10
2022-11-29T15:37:44.633Z,1.42
2022-11-29T15:42:52.692Z,1.23
2022-11-29T15:48:12.532Z,1.33
2022-11-29T15:53:21.216Z,1.27
2022-11-29T15:58:26.415Z,1.25
2022-11-29T16:03:34.157Z,1.10
2022-11-29T16:08:41.165Z,1.45
2022-11-29T16:14:02.132Z,1.35
2022-11-29T16:19:22.336Z,1.52
2022-11-29T16:24:25.319Z,2.05
2022-11-29T16:29:30.268Z,1.95
2022-11-29T16:34:34.644Z,1.77
2022-11-29T16:39:39.861Z,1.95
2022-11-29T16:45:08.601Z,3.30
2022-11-29T16:50:17.918Z,2.42
2022-11-29T16:55:21.032Z,2.40
2022-11-29T17:00:30.691Z,2.80
2022-11-29T17:05:41.612Z,2.30
2022-11-29T17:10:47.505Z,2.35
2022-11-29T17:15:50.477Z,2.40
2022-11-29T17:20:57.260Z,2.20
2022-11-29T17:26:00.966Z,2.15
2022-11-29T17:31:09.747Z,1.80
2022-11-29T17:36:16.633Z,2.40
2022-11-29T17:41:22.488Z,2.03
2022-11-29T17:46:27.078Z,2.58
2022-11-29T17:56:56.026Z,6.68
2022-11-29T18:01:59.010Z,6.95
2022-11-29T18:07:03.439Z,11.25
2022-11-29T18:12:06.509Z,13.70
2022-11-29T18:17:09.859Z,13.07
2022-11-29T18:22:14.206Z,10.95
2022-11-29T18:27:17.207Z,11.40
2022-11-29T18:53:51.211Z,8.75
2022-11-29T18:58:58.250Z,8.52
2022-11-29T19:04:01.260Z,8.10
2022-11-29T19:20:23.903Z,8.93
2022-11-29T19:25:25.476Z,7.45
2022-11-29T19:30:27.044Z,7.32
2022-11-29T19:40:55.519Z,6.88
2022-11-29T19:45:58.564Z,6.45
2022-11-29T19:51:01.901Z,6.15
2022-11-29T19:56:07.686Z,6.00
2022-11-29T20:01:12.373Z,6.35
2022-11-29T20:06:16.997Z,5.88
2022-11-29T20:11:23.135Z,5.93
2022-11-29T20:16:27.135Z,5.72
2022-11-29T20:21:32.162Z,6.82
2022-11-29T20:26:38.630Z,5.45
2022-11-29T20:31:49.109Z,5.53
2022-11-29T20:37:16.991Z,5.60
2022-11-29T20:42:37.026Z,5.00
2022-11-29T20:47:48.415Z,5.53
2022-11-29T20:52:59.512Z,5.00
2022-11-29T20:58:03.837Z,5.60
2022-11-29T21:03:06.885Z,6.00
2022-11-29T21:08:09.869Z,5.25
2022-11-29T21:13:15.981Z,4.72
2022-11-29T21:18:22.898Z,5.03
2022-11-29T21:23:34.382Z,4.53
2022-11-29T21:28:45.224Z,4.47
2022-11-29T21:33:48.772Z,4.40
2022-11-29T21:38:55.028Z,4.07
2022-11-29T21:44:06.461Z,4.30
2022-11-29T21:49:10.375Z,4.32
2022-11-29T21:54:13.392Z,4.43
2022-11-29T21:59:17.893Z,4.22
2022-11-29T22:04:21.310Z,4.07
2022-11-29T22:09:24.269Z,4.20
2022-11-29T22:14:28.698Z,4.25
2022-11-29T22:19:33.247Z,3.78
2022-11-29T22:24:37.653Z,3.28
2022-11-29T22:29:41.958Z,3.65
2022-11-29T22:34:45.235Z,3.75
2022-11-29T22:39:49.318Z,3.40
2022-11-29T22:44:53.678Z,3.58
2022-11-29T22:49:56.656Z,3.40
2022-11-29T22:55:04.495Z,3.33
2022-11-29T23:00:11.368Z,3.10
2022-11-29T23:05:14.392Z,2.78
2022-11-29T23:10:17.558Z,3.22
2022-11-29T23:15:21.938Z,2.70
2022-11-29T23:20:25.063Z,2.88
2022-11-29T23:25:28.066Z,2.70
2022-11-29T23:30:33.400Z,2.42
2022-11-29T23:35:36.369Z,2.53
2022-11-29T23:40:39.188Z,2.55
2022-11-29T23:45:43.418Z,2.40
2022-11-29T23:50:46.966Z,2.58
2022-11-29T23:55:57.324Z,2.15
